sensor_id;sensor_type;location;lat;lon;timestamp;P1;durP1;ratioP1;P2;durP2;ratioP2
1174;SDS011;576;48.418;10.074;2023-08-06T00:02:01;3.90;;;3.60;;
1174;SDS011;576;48.418;10.074;2023-08-06T00:04:30;3.43;;;3.23;;
1174;SDS011;576;48.418;10.074;2023-08-06T00:06:58;4.40;;;4.03;;
1174;SDS011;576;48.418;10.074;2023-08-06T00:09:26;4.47;;;4.07;;
1174;SDS011;576;48.418;10.074;2023-08-06T00:11:56;4.00;;;3.70;;
1174;SDS011;576;48.418;10.074;2023-08-06T00:14:24;3.97;;;3.30;;
1174;SDS011;576;48.418;10.074;2023-08-06T00:16:52;4.60;;;4.20;;
1174;SDS011;576;48.418;10.074;2023-08-06T00:19:20;4.63;;;4.00;;
1174;SDS011;576;48.418;10.074;2023-08-06T00:21:48;3.97;;;3.43;;
1174;SDS011;576;48.418;10.074;2023-08-06T00:24:17;4.37;;;3.97;;
1174;SDS011;576;48.418;10.074;2023-08-06T00:26:45;3.40;;;3.10;;
1174;SDS011;576;48.418;10.074;2023-08-06T00:29:15;3.50;;;3.20;;
1174;SDS011;576;48.418;10.074;2023-08-06T00:31:43;4.37;;;3.97;;
1174;SDS011;576;48.418;10.074;2023-08-06T00:34:11;3.70;;;3.50;;
1174;SDS011;576;48.418;10.074;2023-08-06T00:36:41;3.37;;;3.17;;
1174;SDS011;576;48.418;10.074;2023-08-06T00:39:09;4.30;;;4.00;;
1174;SDS011;576;48.418;10.074;2023-08-06T00:41:37;4.00;;;3.70;;
1174;SDS011;576;48.418;10.074;2023-08-06T00:44:05;4.07;;;3.67;;
1174;SDS011;576;48.418;10.074;2023-08-06T00:46:35;3.90;;;3.60;;
1174;SDS011;576;48.418;10.074;2023-08-06T00:49:03;4.37;;;3.67;;
1174;SDS011;576;48.418;10.074;2023-08-06T00:51:32;4.97;;;4.50;;
1174;SDS011;576;48.418;10.074;2023-08-06T00:54:03;4.80;;;4.30;;
1174;SDS011;576;48.418;10.074;2023-08-06T00:56:31;5.93;;;5.40;;
1174;SDS011;576;48.418;10.074;2023-08-06T00:59:02;4.67;;;4.23;;
1174;SDS011;576;48.418;10.074;2023-08-06T01:01:31;3.93;;;3.63;;
1174;SDS011;576;48.418;10.074;2023-08-06T01:04:01;4.10;;;3.77;;
1174;SDS011;576;48.418;10.074;2023-08-06T01:06:32;5.53;;;4.10;;
1174;SDS011;576;48.418;10.074;2023-08-06T01:09:06;4.20;;;3.87;;
1174;SDS011;576;48.418;10.074;2023-08-06T01:11:47;4.43;;;4.03;;
1174;SDS011;576;48.418;10.074;2023-08-06T01:14:23;4.03;;;3.43;;
1174;SDS011;576;48.418;10.074;2023-08-06T01:16:58;3.43;;;3.23;;
1174;SDS011;576;48.418;10.074;2023-08-06T01:19:30;3.60;;;3.30;;
1174;SDS011;576;48.418;10.074;2023-08-06T01:22:00;3.60;;;3.20;;
1174;SDS011;576;48.418;10.074;2023-08-06T01:24:28;3.60;;;3.30;;
1174;SDS011;576;48.418;10.074;2023-08-06T01:26:58;3.20;;;3.00;;
1174;SDS011;576;48.418;10.074;2023-08-06T01:29:34;3.40;;;3.10;;
1174;SDS011;576;48.418;10.074;2023-08-06T01:32:06;3.33;;;2.93;;
1174;SDS011;576;48.418;10.074;2023-08-06T01:34:39;3.20;;;2.90;;
1174;SDS011;576;48.418;10.074;2023-08-06T01:37:10;4.63;;;2.90;;
1174;SDS011;576;48.418;10.074;2023-08-06T01:39:39;3.30;;;3.10;;
1174;SDS011;576;48.418;10.074;2023-08-06T01:42:09;3.53;;;2.90;;
1174;SDS011;576;48.418;10.074;2023-08-06T01:44:39;3.43;;;3.23;;
1174;SDS011;576;48.418;10.074;2023-08-06T01:47:07;3.60;;;3.30;;
1174;SDS011;576;48.418;10.074;2023-08-06T01:49:35;3.00;;;2.80;;
1174;SDS011;576;48.418;10.074;2023-08-06T01:52:04;2.60;;;2.40;;
1174;SDS011;576;48.418;10.074;2023-08-06T01:54:34;2.80;;;2.60;;
1174;SDS011;576;48.418;10.074;2023-08-06T01:57:03;3.10;;;2.77;;
1174;SDS011;576;48.418;10.074;2023-08-06T01:59:32;3.13;;;2.83;;
1174;SDS011;576;48.418;10.074;2023-08-06T02:02:01;3.03;;;2.73;;
1174;SDS011;576;48.418;10.074;2023-08-06T02:04:29;3.37;;;2.93;;
1174;SDS011;576;48.418;10.074;2023-08-06T02:06:58;3.13;;;2.93;;
1174;SDS011;576;48.418;10.074;2023-08-06T02:09:26;3.10;;;2.80;;
1174;SDS011;576;48.418;10.074;2023-08-06T02:11:55;2.33;;;2.20;;
1174;SDS011;576;48.418;10.074;2023-08-06T02:14:23;3.40;;;2.60;;
1174;SDS011;576;48.418;10.074;2023-08-06T02:16:52;3.17;;;2.87;;
1174;SDS011;576;48.418;10.074;2023-08-06T02:19:20;3.63;;;3.10;;
1174;SDS011;576;48.418;10.074;2023-08-06T02:21:48;3.03;;;2.80;;
1174;SDS011;576;48.418;10.074;2023-08-06T02:24:17;2.80;;;2.47;;
1174;SDS011;576;48.418;10.074;2023-08-06T02:26:45;2.90;;;2.70;;
1174;SDS011;576;48.418;10.074;2023-08-06T02:29:17;2.80;;;2.60;;
1174;SDS011;576;48.418;10.074;2023-08-06T02:31:45;3.00;;;2.80;;
1174;SDS011;576;48.418;10.074;2023-08-06T02:34:13;2.80;;;2.60;;
1174;SDS011;576;48.418;10.074;2023-08-06T02:36:41;2.63;;;2.43;;
1174;SDS011;576;48.418;10.074;2023-08-06T02:39:10;3.50;;;3.20;;
1174;SDS011;576;48.418;10.074;2023-08-06T02:41:38;3.20;;;3.00;;
1174;SDS011;576;48.418;10.074;2023-08-06T02:44:06;2.93;;;2.73;;
1174;SDS011;576;48.418;10.074;2023-08-06T02:46:36;2.90;;;2.60;;
1174;SDS011;576;48.418;10.074;2023-08-06T02:49:05;4.57;;;3.23;;
1174;SDS011;576;48.418;10.074;2023-08-06T02:51:34;3.03;;;2.83;;
1174;SDS011;576;48.418;10.074;2023-08-06T02:54:02;3.03;;;2.83;;
1174;SDS011;576;48.418;10.074;2023-08-06T02:56:32;2.87;;;2.67;;
1174;SDS011;576;48.418;10.074;2023-08-06T02:59:15;3.23;;;2.93;;
1174;SDS011;576;48.418;10.074;2023-08-06T03:01:52;2.90;;;2.70;;
1174;SDS011;576;48.418;10.074;2023-08-06T03:04:28;2.60;;;2.40;;
1174;SDS011;576;48.418;10.074;2023-08-06T03:06:57;2.63;;;2.43;;
1174;SDS011;576;48.418;10.074;2023-08-06T03:09:33;2.90;;;2.70;;
1174;SDS011;576;48.418;10.074;2023-08-06T03:12:01;2.60;;;2.40;;
1174;SDS011;576;48.418;10.074;2023-08-06T03:14:31;2.67;;;2.47;;
1174;SDS011;576;48.418;10.074;2023-08-06T03:17:04;3.70;;;3.40;;
1174;SDS011;576;48.418;10.074;2023-08-06T03:19:33;5.80;;;2.97;;
1174;SDS011;576;48.418;10.074;2023-08-06T03:22:02;3.23;;;3.00;;
1174;SDS011;576;48.418;10.074;2023-08-06T03:27:31;2.27;;;2.17;;
1174;SDS011;576;48.418;10.074;2023-08-06T03:30:00;3.50;;;3.07;;
1174;SDS011;576;48.418;10.074;2023-08-06T03:32:31;3.13;;;2.80;;
1174;SDS011;576;48.418;10.074;2023-08-06T03:34:59;2.83;;;2.63;;
1174;SDS011;576;48.418;10.074;2023-08-06T03:37:29;2.43;;;2.23;;
1174;SDS011;576;48.418;10.074;2023-08-06T03:39:57;3.30;;;3.10;;
1174;SDS011;576;48.418;10.074;2023-08-06T03:42:25;2.37;;;2.20;;
1174;SDS011;576;48.418;10.074;2023-08-06T03:44:54;2.93;;;2.73;;
1174;SDS011;576;48.418;10.074;2023-08-06T03:47:22;2.27;;;2.07;;
1174;SDS011;576;48.418;10.074;2023-08-06T03:49:53;2.30;;;2.20;;
1174;SDS011;576;48.418;10.074;2023-08-06T03:52:21;2.20;;;2.10;;
1174;SDS011;576;48.418;10.074;2023-08-06T03:54:49;2.63;;;2.43;;
1174;SDS011;576;48.418;10.074;2023-08-06T03:57:18;3.10;;;2.90;;
1174;SDS011;576;48.418;10.074;2023-08-06T03:59:46;2.60;;;2.40;;
1174;SDS011;576;48.418;10.074;2023-08-06T04:02:22;2.53;;;2.33;;
1174;SDS011;576;48.418;10.074;2023-08-06T04:04:52;2.27;;;2.00;;
1174;SDS011;576;48.418;10.074;2023-08-06T04:07:20;2.27;;;2.07;;
1174;SDS011;576;48.418;10.074;2023-08-06T04:09:55;3.93;;;2.20;;
1174;SDS011;576;48.418;10.074;2023-08-06T04:12:25;3.70;;;3.00;;
1174;SDS011;576;48.418;10.074;2023-08-06T04:14:53;2.43;;;2.30;;
1174;SDS011;576;48.418;10.074;2023-08-06T04:17:22;4.03;;;2.50;;
1174;SDS011;576;48.418;10.074;2023-08-06T04:19:51;3.00;;;2.80;;
1174;SDS011;576;48.418;10.074;2023-08-06T04:22:21;3.33;;;2.30;;
1174;SDS011;576;48.418;10.074;2023-08-06T04:24:49;4.40;;;2.57;;
1174;SDS011;576;48.418;10.074;2023-08-06T04:27:19;2.90;;;2.70;;
1174;SDS011;576;48.418;10.074;2023-08-06T04:29:48;3.20;;;2.53;;
1174;SDS011;576;48.418;10.074;2023-08-06T04:32:16;2.00;;;1.90;;
1174;SDS011;576;48.418;10.074;2023-08-06T04:34:49;2.47;;;2.27;;
1174;SDS011;576;48.418;10.074;2023-08-06T04:37:19;2.50;;;2.30;;
1174;SDS011;576;48.418;10.074;2023-08-06T04:39:48;2.10;;;2.00;;
1174;SDS011;576;48.418;10.074;2023-08-06T04:42:17;3.03;;;2.40;;
1174;SDS011;576;48.418;10.074;2023-08-06T04:44:46;2.80;;;2.40;;
1174;SDS011;576;48.418;10.074;2023-08-06T04:47:16;2.70;;;2.50;;
1174;SDS011;576;48.418;10.074;2023-08-06T04:49:44;1.97;;;1.77;;
1174;SDS011;576;48.418;10.074;2023-08-06T04:52:12;2.53;;;2.33;;
1174;SDS011;576;48.418;10.074;2023-08-06T04:54:43;4.83;;;2.80;;
1174;SDS011;576;48.418;10.074;2023-08-06T04:57:11;2.63;;;2.43;;
1174;SDS011;576;48.418;10.074;2023-08-06T04:59:39;2.90;;;2.70;;
1174;SDS011;576;48.418;10.074;2023-08-06T05:02:07;2.37;;;2.23;;
1174;SDS011;576;48.418;10.074;2023-08-06T05:04:36;2.30;;;2.10;;
1174;SDS011;576;48.418;10.074;2023-08-06T05:07:05;3.40;;;2.47;;
1174;SDS011;576;48.418;10.074;2023-08-06T05:09:33;2.33;;;2.23;;
1174;SDS011;576;48.418;10.074;2023-08-06T05:12:03;2.63;;;2.43;;
1174;SDS011;576;48.418;10.074;2023-08-06T05:14:32;2.30;;;2.10;;
1174;SDS011;576;48.418;10.074;2023-08-06T05:17:00;2.07;;;1.97;;
1174;SDS011;576;48.418;10.074;2023-08-06T05:19:30;2.80;;;2.60;;
1174;SDS011;576;48.418;10.074;2023-08-06T05:21:58;3.07;;;2.87;;
1174;SDS011;576;48.418;10.074;2023-08-06T05:24:27;2.50;;;2.30;;
1174;SDS011;576;48.418;10.074;2023-08-06T05:26:55;2.60;;;2.40;;
1174;SDS011;576;48.418;10.074;2023-08-06T05:29:25;2.20;;;2.10;;
1174;SDS011;576;48.418;10.074;2023-08-06T05:31:53;2.07;;;1.87;;
1174;SDS011;576;48.418;10.074;2023-08-06T05:34:22;2.27;;;2.10;;
1174;SDS011;576;48.418;10.074;2023-08-06T05:36:50;2.17;;;1.97;;
1174;SDS011;576;48.418;10.074;2023-08-06T05:39:19;3.00;;;2.07;;
1174;SDS011;576;48.418;10.074;2023-08-06T05:41:47;3.83;;;2.33;;
1174;SDS011;576;48.418;10.074;2023-08-06T05:44:17;2.77;;;2.40;;
1174;SDS011;576;48.418;10.074;2023-08-06T05:46:46;3.43;;;2.03;;
1174;SDS011;576;48.418;10.074;2023-08-06T05:49:15;2.30;;;2.10;;
1174;SDS011;576;48.418;10.074;2023-08-06T05:51:43;2.27;;;1.93;;
1174;SDS011;576;48.418;10.074;2023-08-06T05:54:11;2.17;;;2.03;;
1174;SDS011;576;48.418;10.074;2023-08-06T05:56:39;3.13;;;2.67;;
1174;SDS011;576;48.418;10.074;2023-08-06T05:59:07;2.27;;;1.70;;
1174;SDS011;576;48.418;10.074;2023-08-06T06:01:35;2.27;;;2.07;;
1174;SDS011;576;48.418;10.074;2023-08-06T06:04:05;2.70;;;2.50;;
1174;SDS011;576;48.418;10.074;2023-08-06T06:06:33;2.93;;;2.30;;
1174;SDS011;576;48.418;10.074;2023-08-06T06:09:01;2.40;;;2.20;;
1174;SDS011;576;48.418;10.074;2023-08-06T06:11:29;3.00;;;2.40;;
1174;SDS011;576;48.418;10.074;2023-08-06T06:13:57;2.10;;;1.90;;
1174;SDS011;576;48.418;10.074;2023-08-06T06:16:25;2.30;;;2.10;;
1174;SDS011;576;48.418;10.074;2023-08-06T06:18:54;3.00;;;2.40;;
1174;SDS011;576;48.418;10.074;2023-08-06T06:21:25;2.53;;;2.33;;
1174;SDS011;576;48.418;10.074;2023-08-06T06:23:53;2.37;;;2.17;;
1174;SDS011;576;48.418;10.074;2023-08-06T06:26:21;2.43;;;1.87;;
1174;SDS011;576;48.418;10.074;2023-08-06T06:28:49;3.17;;;2.00;;
1174;SDS011;576;48.418;10.074;2023-08-06T06:31:17;1.83;;;1.73;;
1174;SDS011;576;48.418;10.074;2023-08-06T06:33:45;2.60;;;2.10;;
1174;SDS011;576;48.418;10.074;2023-08-06T06:36:14;1.80;;;1.70;;
1174;SDS011;576;48.418;10.074;2023-08-06T06:38:43;1.73;;;1.63;;
1174;SDS011;576;48.418;10.074;2023-08-06T06:41:11;2.07;;;1.87;;
1174;SDS011;576;48.418;10.074;2023-08-06T06:43:39;2.17;;;1.67;;
1174;SDS011;576;48.418;10.074;2023-08-06T06:46:08;1.80;;;1.70;;
1174;SDS011;576;48.418;10.074;2023-08-06T06:48:36;2.17;;;1.80;;
1174;SDS011;576;48.418;10.074;2023-08-06T06:51:04;1.97;;;1.87;;
1174;SDS011;576;48.418;10.074;2023-08-06T06:53:32;3.50;;;1.33;;
1174;SDS011;576;48.418;10.074;2023-08-06T06:56:03;2.80;;;1.70;;
1174;SDS011;576;48.418;10.074;2023-08-06T06:58:32;1.80;;;1.70;;
1174;SDS011;576;48.418;10.074;2023-08-06T07:01:00;2.43;;;2.00;;
1174;SDS011;576;48.418;10.074;2023-08-06T07:03:28;2.97;;;1.40;;
1174;SDS011;576;48.418;10.074;2023-08-06T07:05:57;1.60;;;1.50;;
1174;SDS011;576;48.418;10.074;2023-08-06T07:08:26;1.33;;;1.23;;
1174;SDS011;576;48.418;10.074;2023-08-06T07:10:59;1.60;;;1.50;;
1174;SDS011;576;48.418;10.074;2023-08-06T07:13:30;2.30;;;1.50;;
1174;SDS011;576;48.418;10.074;2023-08-06T07:15:58;3.17;;;1.40;;
1174;SDS011;576;48.418;10.074;2023-08-06T07:18:26;1.40;;;1.30;;
1174;SDS011;576;48.418;10.074;2023-08-06T07:20:55;1.30;;;1.17;;
1174;SDS011;576;48.418;10.074;2023-08-06T07:23:25;2.63;;;1.47;;
1174;SDS011;576;48.418;10.074;2023-08-06T07:25:53;2.13;;;1.37;;
1174;SDS011;576;48.418;10.074;2023-08-06T07:28:21;1.80;;;1.23;;
1174;SDS011;576;48.418;10.074;2023-08-06T07:30:51;2.00;;;1.40;;
1174;SDS011;576;48.418;10.074;2023-08-06T07:33:19;1.37;;;1.03;;
1174;SDS011;576;48.418;10.074;2023-08-06T07:35:47;0.87;;;0.77;;
1174;SDS011;576;48.418;10.074;2023-08-06T07:38:15;0.90;;;0.90;;
1174;SDS011;576;48.418;10.074;2023-08-06T07:40:44;1.27;;;1.10;;
1174;SDS011;576;48.418;10.074;2023-08-06T07:43:12;0.70;;;0.70;;
1174;SDS011;576;48.418;10.074;2023-08-06T07:45:40;1.00;;;0.80;;
1174;SDS011;576;48.418;10.074;2023-08-06T07:48:10;0.80;;;0.80;;
1174;SDS011;576;48.418;10.074;2023-08-06T07:50:38;1.10;;;1.00;;
1174;SDS011;576;48.418;10.074;2023-08-06T07:53:06;1.10;;;1.00;;
1174;SDS011;576;48.418;10.074;2023-08-06T07:55:34;0.50;;;0.50;;
1174;SDS011;576;48.418;10.074;2023-08-06T07:58:03;1.47;;;0.80;;
1174;SDS011;576;48.418;10.074;2023-08-06T08:00:31;0.60;;;0.60;;
1174;SDS011;576;48.418;10.074;2023-08-06T08:02:59;1.07;;;0.70;;
1174;SDS011;576;48.418;10.074;2023-08-06T08:05:29;1.33;;;0.57;;
1174;SDS011;576;48.418;10.074;2023-08-06T08:07:58;0.50;;;0.50;;
1174;SDS011;576;48.418;10.074;2023-08-06T08:10:26;1.23;;;0.50;;
1174;SDS011;576;48.418;10.074;2023-08-06T08:12:54;1.03;;;0.50;;
1174;SDS011;576;48.418;10.074;2023-08-06T08:15:22;0.87;;;0.37;;
1174;SDS011;576;48.418;10.074;2023-08-06T08:17:52;0.40;;;0.30;;
1174;SDS011;576;48.418;10.074;2023-08-06T08:20:20;0.40;;;0.40;;
1174;SDS011;576;48.418;10.074;2023-08-06T08:22:50;1.33;;;0.40;;
1174;SDS011;576;48.418;10.074;2023-08-06T08:25:18;0.53;;;0.40;;
1174;SDS011;576;48.418;10.074;2023-08-06T08:27:46;0.90;;;0.47;;
1174;SDS011;576;48.418;10.074;2023-08-06T08:30:14;1.53;;;0.43;;
1174;SDS011;576;48.418;10.074;2023-08-06T08:32:42;0.50;;;0.50;;
1174;SDS011;576;48.418;10.074;2023-08-06T08:35:11;0.50;;;0.50;;
1174;SDS011;576;48.418;10.074;2023-08-06T08:37:40;0.50;;;0.50;;
1174;SDS011;576;48.418;10.074;2023-08-06T08:40:10;1.00;;;0.40;;
1174;SDS011;576;48.418;10.074;2023-08-06T08:42:38;0.47;;;0.47;;
1174;SDS011;576;48.418;10.074;2023-08-06T08:45:07;1.23;;;0.50;;
1174;SDS011;576;48.418;10.074;2023-08-06T08:47:40;0.30;;;0.30;;
1174;SDS011;576;48.418;10.074;2023-08-06T08:50:10;0.47;;;0.43;;
1174;SDS011;576;48.418;10.074;2023-08-06T08:52:39;0.60;;;0.40;;
1174;SDS011;576;48.418;10.074;2023-08-06T08:55:09;0.50;;;0.43;;
1174;SDS011;576;48.418;10.074;2023-08-06T08:57:37;0.40;;;0.40;;
1174;SDS011;576;48.418;10.074;2023-08-06T09:00:06;0.63;;;0.40;;
1174;SDS011;576;48.418;10.074;2023-08-06T09:02:35;0.50;;;0.50;;
1174;SDS011;576;48.418;10.074;2023-08-06T09:05:06;0.33;;;0.33;;
1174;SDS011;576;48.418;10.074;2023-08-06T09:07:38;0.80;;;0.40;;
1174;SDS011;576;48.418;10.074;2023-08-06T09:10:11;0.83;;;0.40;;
1174;SDS011;576;48.418;10.074;2023-08-06T09:12:44;2.07;;;0.67;;
1174;SDS011;576;48.418;10.074;2023-08-06T09:15:14;0.50;;;0.40;;
1174;SDS011;576;48.418;10.074;2023-08-06T09:17:42;1.17;;;0.50;;
1174;SDS011;576;48.418;10.074;2023-08-06T09:20:11;0.40;;;0.40;;
1174;SDS011;576;48.418;10.074;2023-08-06T09:22:40;0.50;;;0.50;;
1174;SDS011;576;48.418;10.074;2023-08-06T09:25:12;0.90;;;0.40;;
1174;SDS011;576;48.418;10.074;2023-08-06T09:27:48;0.60;;;0.60;;
1174;SDS011;576;48.418;10.074;2023-08-06T09:30:28;0.43;;;0.43;;
1174;SDS011;576;48.418;10.074;2023-08-06T09:32:57;0.70;;;0.40;;
1174;SDS011;576;48.418;10.074;2023-08-06T09:35:28;0.50;;;0.50;;
1174;SDS011;576;48.418;10.074;2023-08-06T09:38:03;1.00;;;0.70;;
1174;SDS011;576;48.418;10.074;2023-08-06T09:40:35;0.50;;;0.50;;
1174;SDS011;576;48.418;10.074;2023-08-06T09:43:05;0.97;;;0.60;;
1174;SDS011;576;48.418;10.074;2023-08-06T09:45:34;1.27;;;0.43;;
1174;SDS011;576;48.418;10.074;2023-08-06T09:48:04;0.50;;;0.40;;
1174;SDS011;576;48.418;10.074;2023-08-06T09:50:33;2.00;;;0.60;;
1174;SDS011;576;48.418;10.074;2023-08-06T09:53:03;0.70;;;0.47;;
1174;SDS011;576;48.418;10.074;2023-08-06T09:55:32;1.47;;;0.60;;
1174;SDS011;576;48.418;10.074;2023-08-06T09:58:02;0.57;;;0.50;;
1174;SDS011;576;48.418;10.074;2023-08-06T10:00:33;0.40;;;0.30;;
1174;SDS011;576;48.418;10.074;2023-08-06T10:03:05;0.60;;;0.60;;
1174;SDS011;576;48.418;10.074;2023-08-06T10:05:35;0.83;;;0.40;;
1174;SDS011;576;48.418;10.074;2023-08-06T10:08:04;0.33;;;0.30;;
1174;SDS011;576;48.418;10.074;2023-08-06T10:10:34;0.97;;;0.97;;
1174;SDS011;576;48.418;10.074;2023-08-06T10:13:04;0.50;;;0.40;;
1174;SDS011;576;48.418;10.074;2023-08-06T10:15:35;0.30;;;0.30;;
1174;SDS011;576;48.418;10.074;2023-08-06T10:18:05;0.93;;;0.50;;
1174;SDS011;576;48.418;10.074;2023-08-06T10:20:34;0.70;;;0.53;;
1174;SDS011;576;48.418;10.074;2023-08-06T10:23:03;0.83;;;0.60;;
1174;SDS011;576;48.418;10.074;2023-08-06T10:25:32;0.93;;;0.43;;
1174;SDS011;576;48.418;10.074;2023-08-06T10:28:08;1.17;;;0.40;;
1174;SDS011;576;48.418;10.074;2023-08-06T10:30:44;0.50;;;0.50;;
1174;SDS011;576;48.418;10.074;2023-08-06T10:33:13;0.50;;;0.40;;
1174;SDS011;576;48.418;10.074;2023-08-06T10:35:43;0.90;;;0.53;;
1174;SDS011;576;48.418;10.074;2023-08-06T10:38:15;0.47;;;0.30;;
1174;SDS011;576;48.418;10.074;2023-08-06T10:40:48;0.53;;;0.50;;
1174;SDS011;576;48.418;10.074;2023-08-06T10:43:28;0.40;;;0.40;;
1174;SDS011;576;48.418;10.074;2023-08-06T10:45:58;0.40;;;0.40;;
1174;SDS011;576;48.418;10.074;2023-08-06T10:48:30;0.80;;;0.50;;
1174;SDS011;576;48.418;10.074;2023-08-06T10:51:01;0.80;;;0.57;;
1174;SDS011;576;48.418;10.074;2023-08-06T10:53:30;0.87;;;0.50;;
1174;SDS011;576;48.418;10.074;2023-08-06T10:56:00;0.63;;;0.53;;
1174;SDS011;576;48.418;10.074;2023-08-06T10:58:32;2.30;;;0.43;;
1174;SDS011;576;48.418;10.074;2023-08-06T11:01:01;1.37;;;0.50;;
1174;SDS011;576;48.418;10.074;2023-08-06T11:03:29;0.87;;;0.40;;
1174;SDS011;576;48.418;10.074;2023-08-06T11:05:59;0.50;;;0.40;;
1174;SDS011;576;48.418;10.074;2023-08-06T11:08:27;0.40;;;0.30;;
1174;SDS011;576;48.418;10.074;2023-08-06T11:11:07;0.47;;;0.37;;
1174;SDS011;576;48.418;10.074;2023-08-06T11:13:38;0.40;;;0.40;;
1174;SDS011;576;48.418;10.074;2023-08-06T11:16:06;0.33;;;0.33;;
1174;SDS011;576;48.418;10.074;2023-08-06T11:18:35;0.93;;;0.40;;
1174;SDS011;576;48.418;10.074;2023-08-06T11:21:04;0.43;;;0.40;;
1174;SDS011;576;48.418;10.074;2023-08-06T11:23:32;0.73;;;0.63;;
1174;SDS011;576;48.418;10.074;2023-08-06T11:26:01;0.40;;;0.40;;
1174;SDS011;576;48.418;10.074;2023-08-06T11:28:29;0.40;;;0.30;;
1174;SDS011;576;48.418;10.074;2023-08-06T11:30:59;0.80;;;0.50;;
1174;SDS011;576;48.418;10.074;2023-08-06T11:33:28;2.00;;;0.40;;
1174;SDS011;576;48.418;10.074;2023-08-06T11:35:58;0.40;;;0.40;;
1174;SDS011;576;48.418;10.074;2023-08-06T11:38:27;1.47;;;0.43;;
1174;SDS011;576;48.418;10.074;2023-08-06T11:40:56;0.40;;;0.30;;
1174;SDS011;576;48.418;10.074;2023-08-06T11:43:24;0.40;;;0.40;;
1174;SDS011;576;48.418;10.074;2023-08-06T11:45:52;0.40;;;0.40;;
1174;SDS011;576;48.418;10.074;2023-08-06T11:48:25;0.50;;;0.40;;
1174;SDS011;576;48.418;10.074;2023-08-06T11:50:53;0.50;;;0.47;;
1174;SDS011;576;48.418;10.074;2023-08-06T11:53:27;0.40;;;0.40;;
1174;SDS011;576;48.418;10.074;2023-08-06T11:55:55;0.70;;;0.50;;
1174;SDS011;576;48.418;10.074;2023-08-06T11:58:23;0.60;;;0.33;;
1174;SDS011;576;48.418;10.074;2023-08-06T12:00:51;0.60;;;0.43;;
1174;SDS011;576;48.418;10.074;2023-08-06T12:03:21;1.07;;;0.50;;
1174;SDS011;576;48.418;10.074;2023-08-06T12:05:55;0.90;;;0.40;;
1174;SDS011;576;48.418;10.074;2023-08-06T12:08:26;0.43;;;0.33;;
1174;SDS011;576;48.418;10.074;2023-08-06T12:10:54;0.30;;;0.30;;
1174;SDS011;576;48.418;10.074;2023-08-06T12:13:22;0.60;;;0.30;;
1174;SDS011;576;48.418;10.074;2023-08-06T12:15:51;0.53;;;0.40;;
1174;SDS011;576;48.418;10.074;2023-08-06T12:18:19;0.97;;;0.40;;
1174;SDS011;576;48.418;10.074;2023-08-06T12:20:48;2.73;;;0.40;;
1174;SDS011;576;48.418;10.074;2023-08-06T12:23:18;0.30;;;0.30;;
1174;SDS011;576;48.418;10.074;2023-08-06T12:25:46;0.50;;;0.30;;
1174;SDS011;576;48.418;10.074;2023-08-06T12:28:16;0.50;;;0.40;;
1174;SDS011;576;48.418;10.074;2023-08-06T12:30:45;0.40;;;0.40;;
1174;SDS011;576;48.418;10.074;2023-08-06T12:33:13;0.40;;;0.30;;
1174;SDS011;576;48.418;10.074;2023-08-06T12:35:41;2.63;;;0.43;;
1174;SDS011;576;48.418;10.074;2023-08-06T12:38:09;0.77;;;0.33;;
1174;SDS011;576;48.418;10.074;2023-08-06T12:40:39;0.30;;;0.30;;
1174;SDS011;576;48.418;10.074;2023-08-06T12:43:09;0.47;;;0.47;;
1174;SDS011;576;48.418;10.074;2023-08-06T12:45:37;0.40;;;0.30;;
1174;SDS011;576;48.418;10.074;2023-08-06T12:48:05;0.60;;;0.47;;
1174;SDS011;576;48.418;10.074;2023-08-06T12:50:35;0.40;;;0.40;;
1174;SDS011;576;48.418;10.074;2023-08-06T12:53:04;0.40;;;0.33;;
1174;SDS011;576;48.418;10.074;2023-08-06T12:55:32;0.63;;;0.40;;
1174;SDS011;576;48.418;10.074;2023-08-06T12:58:01;0.30;;;0.30;;
1174;SDS011;576;48.418;10.074;2023-08-06T13:00:30;0.40;;;0.30;;
1174;SDS011;576;48.418;10.074;2023-08-06T13:02:58;2.00;;;0.40;;
1174;SDS011;576;48.418;10.074;2023-08-06T13:05:27;0.60;;;0.40;;
1174;SDS011;576;48.418;10.074;2023-08-06T13:07:55;0.40;;;0.40;;
1174;SDS011;576;48.418;10.074;2023-08-06T13:10:23;0.60;;;0.30;;
1174;SDS011;576;48.418;10.074;2023-08-06T13:12:52;0.30;;;0.30;;
1174;SDS011;576;48.418;10.074;2023-08-06T13:15:22;0.50;;;0.40;;
1174;SDS011;576;48.418;10.074;2023-08-06T13:17:50;0.30;;;0.30;;
1174;SDS011;576;48.418;10.074;2023-08-06T13:20:18;0.40;;;0.40;;
1174;SDS011;576;48.418;10.074;2023-08-06T13:22:47;0.40;;;0.40;;
1174;SDS011;576;48.418;10.074;2023-08-06T13:25:17;0.40;;;0.40;;
1174;SDS011;576;48.418;10.074;2023-08-06T13:27:46;0.40;;;0.40;;
1174;SDS011;576;48.418;10.074;2023-08-06T13:30:15;0.40;;;0.40;;
1174;SDS011;576;48.418;10.074;2023-08-06T13:32:46;0.40;;;0.40;;
1174;SDS011;576;48.418;10.074;2023-08-06T13:35:14;0.40;;;0.40;;
1174;SDS011;576;48.418;10.074;2023-08-06T13:37:42;0.60;;;0.40;;
1174;SDS011;576;48.418;10.074;2023-08-06T13:40:11;1.17;;;0.50;;
1174;SDS011;576;48.418;10.074;2023-08-06T13:42:39;0.70;;;0.50;;
1174;SDS011;576;48.418;10.074;2023-08-06T13:45:07;0.40;;;0.40;;
1174;SDS011;576;48.418;10.074;2023-08-06T13:47:36;0.30;;;0.30;;
1174;SDS011;576;48.418;10.074;2023-08-06T13:50:06;0.50;;;0.47;;
1174;SDS011;576;48.418;10.074;2023-08-06T13:52:35;0.57;;;0.40;;
1174;SDS011;576;48.418;10.074;2023-08-06T13:55:03;0.50;;;0.43;;
1174;SDS011;576;48.418;10.074;2023-08-06T13:57:32;0.70;;;0.70;;
1174;SDS011;576;48.418;10.074;2023-08-06T14:00:00;0.60;;;0.60;;
1174;SDS011;576;48.418;10.074;2023-08-06T14:02:37;1.23;;;0.60;;
1174;SDS011;576;48.418;10.074;2023-08-06T14:05:07;0.70;;;0.70;;
1174;SDS011;576;48.418;10.074;2023-08-06T14:07:36;0.40;;;0.40;;
1174;SDS011;576;48.418;10.074;2023-08-06T14:10:05;0.53;;;0.53;;
1174;SDS011;576;48.418;10.074;2023-08-06T14:12:35;0.40;;;0.40;;
1174;SDS011;576;48.418;10.074;2023-08-06T14:15:03;0.50;;;0.50;;
1174;SDS011;576;48.418;10.074;2023-08-06T14:17:32;1.07;;;0.50;;
1174;SDS011;576;48.418;10.074;2023-08-06T14:20:00;0.57;;;0.57;;
1174;SDS011;576;48.418;10.074;2023-08-06T14:22:32;0.80;;;0.60;;
1174;SDS011;576;48.418;10.074;2023-08-06T14:25:00;0.60;;;0.60;;
1174;SDS011;576;48.418;10.074;2023-08-06T14:27:28;0.50;;;0.50;;
1174;SDS011;576;48.418;10.074;2023-08-06T14:29:56;0.83;;;0.50;;
1174;SDS011;576;48.418;10.074;2023-08-06T14:32:24;0.50;;;0.50;;
1174;SDS011;576;48.418;10.074;2023-08-06T14:34:53;0.60;;;0.50;;
1174;SDS011;576;48.418;10.074;2023-08-06T14:37:21;0.80;;;0.60;;
1174;SDS011;576;48.418;10.074;2023-08-06T14:39:50;0.60;;;0.60;;
1174;SDS011;576;48.418;10.074;2023-08-06T14:42:19;0.50;;;0.50;;
1174;SDS011;576;48.418;10.074;2023-08-06T14:44:47;0.70;;;0.40;;
1174;SDS011;576;48.418;10.074;2023-08-06T14:47:15;0.50;;;0.50;;
1174;SDS011;576;48.418;10.074;2023-08-06T14:49:43;0.50;;;0.50;;
1174;SDS011;576;48.418;10.074;2023-08-06T14:52:11;0.50;;;0.50;;
1174;SDS011;576;48.418;10.074;2023-08-06T14:54:40;0.50;;;0.50;;
1174;SDS011;576;48.418;10.074;2023-08-06T14:57:10;0.60;;;0.60;;
1174;SDS011;576;48.418;10.074;2023-08-06T14:59:39;0.30;;;0.30;;
1174;SDS011;576;48.418;10.074;2023-08-06T15:02:07;0.50;;;0.50;;
1174;SDS011;576;48.418;10.074;2023-08-06T15:04:36;0.40;;;0.40;;
1174;SDS011;576;48.418;10.074;2023-08-06T15:07:04;0.50;;;0.50;;
1174;SDS011;576;48.418;10.074;2023-08-06T15:09:32;0.57;;;0.40;;
1174;SDS011;576;48.418;10.074;2023-08-06T15:12:21;0.30;;;0.30;;
1174;SDS011;576;48.418;10.074;2023-08-06T15:14:50;0.40;;;0.40;;
1174;SDS011;576;48.418;10.074;2023-08-06T15:17:18;0.50;;;0.50;;
1174;SDS011;576;48.418;10.074;2023-08-06T15:19:46;0.60;;;0.60;;
1174;SDS011;576;48.418;10.074;2023-08-06T15:22:14;0.53;;;0.53;;
1174;SDS011;576;48.418;10.074;2023-08-06T15:24:42;0.40;;;0.40;;
1174;SDS011;576;48.418;10.074;2023-08-06T15:27:12;0.53;;;0.50;;
1174;SDS011;576;48.418;10.074;2023-08-06T15:29:42;0.47;;;0.40;;
1174;SDS011;576;48.418;10.074;2023-08-06T15:32:10;0.40;;;0.40;;